Terre Haute International Hulman Field
KHUF : rendu visible

Aérodrome :











RETROUVEZ-NOUS SUR...

 
LOGIN :

S'inscrire | Disclaimer

   EN    FR    IT 

 









Légende :    VFR   VFR Marginal   IFR   IFR Intensif   IFR Très Intensif
Visi : 
Plafond : 
>= 8 km
>= 3000ft
5 à 8 km
1000 à 3000 ft
1500m à 5 km
500 à 1000 ft
800 à 1500m
200 à 500 ft
< 800m
< 200 ft
Symboles :   Orages  Brouillard  Fortes neiges  Fortes précipitations  Vent > 20 kt






- Altitude de l'aérodrome : 589 ft
- Code IATA : HUF


KHUF - Terre Haute International Hulman Field

DERNIER METAR :
  • 200353Z 33009KT 10SM OVC017 M09/M13 A3052 RMK AO2 SNB03E12B30E40 SLP346 P0000 T10941128

METARs EXPIRÉS :
  • 200253Z 31008KT 9SM OVC018 M09/M13 A3051 RMK AO2 SNB07E49 SLP343 P0000 60000 T10941133 51007
  • 200153Z 31008KT 10SM OVC018 M10/M13 A3050 RMK AO2 SNE42 SLP340 P0000 T11001133

TAF KHUF
Valide du 20 à 02h jusqu'au 21 à 00h UTC


200213Z 2002/2024 31008KT P6SM OVC018
FM200500 31007KT P6SM SCT080
FM201800 34005KT P6SM BKN150
FM202100 34006KT P6SM BKN045



MET'MAP, la Météo Aéronautique d'un coup d'oeil ! - Copyright ORBIFLY Décembre 2007 - Disclaimer

ORBIFLY MET'MAP TEAM :

Programmation & Développement : Alexandra Zaïnal
Sur une idée originale de : Baudouin d'Aumeries
Assistance à la programmation : Marc-Olivier Méhu
Soutien technique & logistique : Manuel Goepfert

Contact : metmap@orbifly.com




SOURCES & CREDITS :

   NOAA       Earth
Advisory